Time;durP1;ratioP1;P1;durP2;ratioP2;P2;SDS_P1;SDS_P2;PMS_P1;PMS_P2;Temp;Humidity;BMP_temperature;BMP_pressure;BME280_temperature;BME280_humidity;BME280_pressure;Samples;Min_cycle;Max_cycle;Signal;HPM_P1;HPM_P2
2022/01/30 00:01:07;;;;;;;25.70;4.75;;;;;;;4.99;88.00;102539.97;5248270;28;20613;-67
2022/01/30 00:03:39;;;;;;;27.45;4.80;;;;;;;5.02;88.29;102539.00;5247199;28;20058;-68
2022/01/30 00:06:10;;;;;;;29.30;5.30;;;;;;;4.95;88.42;102555.94;5247264;28;20055;-68
2022/01/30 00:08:42;;;;;;;21.83;4.53;;;;;;;4.91;88.68;102557.81;5246109;28;20033;-67
2022/01/30 00:11:18;;;;;;;25.95;5.15;;;;;;;4.90;88.35;102564.84;5241007;28;20059;-67
2022/01/30 00:13:50;;;;;;;23.92;4.63;;;;;;;4.85;88.78;102563.22;5240374;28;20475;-67
2022/01/30 00:16:24;;;;;;;29.70;4.90;;;;;;;4.78;88.74;102562.53;5242460;28;20036;-67
2022/01/30 00:19:22;;;;;;;24.58;4.78;;;;;;;4.72;88.79;102562.69;5234884;28;20025;-67
2022/01/30 00:22:12;;;;;;;22.80;4.32;;;;;;;4.74;88.90;102563.50;5239931;28;20056;-67
2022/01/30 00:25:00;;;;;;;23.58;4.57;;;;;;;4.64;89.09;102559.34;5241935;28;20028;-67
2022/01/30 00:27:44;;;;;;;21.65;4.45;;;;;;;4.68;88.89;102566.31;5247048;28;20024;-67
2022/01/30 00:30:17;;;;;;;28.45;5.50;;;;;;;4.65;89.23;102566.38;5248888;28;20036;-68
2022/01/30 00:32:48;;;;;;;26.13;4.55;;;;;;;4.60;88.71;102569.13;5247159;28;20033;-67
2022/01/30 00:35:19;;;;;;;31.27;5.38;;;;;;;4.62;88.49;102587.59;5247648;28;20031;-67
2022/01/30 00:37:51;;;;;;;24.98;4.50;;;;;;;4.61;88.38;102592.00;5238261;28;20033;-67
2022/01/30 00:40:22;;;;;;;25.42;5.07;;;;;;;4.53;88.88;102580.75;5245387;28;20100;-67
2022/01/30 00:42:53;;;;;;;26.00;5.00;;;;;;;4.51;90.60;102580.78;5245814;28;20095;-67
2022/01/30 00:45:25;;;;;;;36.55;4.90;;;;;;;4.48;89.44;102580.84;5248948;28;20027;-67
2022/01/30 00:47:56;;;;;;;22.73;4.80;;;;;;;4.40;89.45;102572.22;5246748;28;20033;-67
2022/01/30 00:50:27;;;;;;;25.75;4.75;;;;;;;4.37;89.90;102584.63;5249762;28;20033;-67
2022/01/30 00:52:59;;;;;;;22.42;5.15;;;;;;;4.31;89.98;102588.28;5244095;28;20058;-67
2022/01/30 00:55:31;;;;;;;27.08;4.90;;;;;;;4.34;90.03;102584.72;5245819;28;20033;-67
2022/01/30 00:58:04;;;;;;;23.45;4.30;;;;;;;4.32;90.05;102590.03;5248112;28;20036;-67
2022/01/30 01:00:35;;;;;;;26.50;5.20;;;;;;;4.21;91.52;102586.75;5244051;28;20028;-67
2022/01/30 01:03:07;;;;;;;29.95;4.97;;;;;;;4.16;91.20;102588.63;5245798;28;20610;-67
2022/01/30 01:05:38;;;;;;;25.65;4.25;;;;;;;4.17;90.72;102599.16;5249339;28;20028;-67
2022/01/30 01:08:26;;;;;;;22.13;4.43;;;;;;;4.11;91.50;102594.00;5240881;28;20052;-67
2022/01/30 01:12:07;;;;;;;21.30;4.55;;;;;;;4.00;91.88;102599.50;5242658;28;20343;-67
2022/01/30 01:25:08;;;;;;;29.58;5.00;;;;;;;3.89;93.50;102601.50;5239201;28;20049;-67
2022/01/30 01:27:39;;;;;;;25.98;4.90;;;;;;;3.85;93.96;102610.38;5244230;28;20636;-67
2022/01/30 01:30:11;;;;;;;23.35;4.55;;;;;;;3.82;94.61;102606.03;5250647;28;20040;-67
2022/01/30 01:32:43;;;;;;;26.05;5.68;;;;;;;3.82;95.53;102608.69;5248488;28;20037;-67
2022/01/30 01:35:14;;;;;;;29.02;5.05;;;;;;;3.85;94.84;102613.88;5240061;28;20033;-67
2022/01/30 01:37:51;;;;;;;28.73;4.63;;;;;;;3.88;94.45;102615.63;5239776;28;20043;-67
2022/01/30 01:40:23;;;;;;;29.48;5.13;;;;;;;3.90;95.17;102622.59;5248112;28;20403;-67
2022/01/30 01:42:55;;;;;;;26.15;4.38;;;;;;;3.91;93.96;102615.53;5250884;28;20021;-67
2022/01/30 01:45:33;;;;;;;23.90;4.57;;;;;;;3.86;94.14;102610.34;5242853;28;20527;-67
2022/01/30 01:48:11;;;;;;;26.90;4.72;;;;;;;3.83;94.27;102612.19;5230728;28;20160;-67
2022/01/30 01:50:51;;;;;;;31.73;5.13;;;;;;;3.80;93.66;102621.06;5237279;28;20041;-67
2022/01/30 01:53:24;;;;;;;30.90;4.68;;;;;;;3.71;94.36;102627.38;5243844;28;20522;-67
2022/01/30 01:55:56;;;;;;;23.95;4.75;;;;;;;3.69;94.88;102625.66;5245781;28;20036;-67
2022/01/30 01:58:28;;;;;;;26.45;4.93;;;;;;;3.65;95.86;102624.84;5243223;28;20154;-67
2022/01/30 02:01:01;;;;;;;26.55;4.40;;;;;;;3.59;94.92;102624.97;5245527;28;20115;-67
2022/01/30 02:03:37;;;;;;;26.48;4.07;;;;;;;3.52;95.46;102624.19;5244400;28;20045;-67
2022/01/30 02:06:12;;;;;;;22.08;4.78;;;;;;;3.58;95.31;102623.22;5238463;28;20036;-67
2022/01/30 02:08:50;;;;;;;27.10;6.40;;;;;;;3.52;95.89;102613.63;5239920;28;20028;-67
2022/01/30 02:11:36;;;;;;;23.73;4.70;;;;;;;3.48;96.21;102609.31;5247429;28;20040;-67
2022/01/30 02:25:37;;;;;;;37.13;5.82;;;;;;;3.48;97.14;102600.53;5233503;28;20033;-67
2022/01/30 02:28:15;;;;;;;28.35;5.15;;;;;;;3.53;97.04;102603.97;5235086;28;20060;-67
2022/01/30 02:30:55;;;;;;;30.38;5.15;;;;;;;3.45;97.69;102597.94;5253866;28;20116;-67
2022/01/30 02:33:27;;;;;;;26.15;5.03;;;;;;;3.40;96.97;102602.47;5243785;28;20028;-67
2022/01/30 02:35:58;;;;;;;29.85;5.00;;;;;;;3.42;97.20;102605.94;5242960;28;20032;-67
2022/01/30 02:38:29;;;;;;;28.42;5.10;;;;;;;3.36;97.20;102601.63;5237932;28;20021;-67
2022/01/30 02:41:01;;;;;;;34.20;5.63;;;;;;;3.37;97.83;102606.00;5246586;28;20053;-67
2022/01/30 02:43:38;;;;;;;27.40;4.82;;;;;;;3.30;98.01;102602.63;5248945;28;20146;-67
2022/01/30 02:46:23;;;;;;;27.20;4.80;;;;;;;3.23;98.06;102606.25;5244050;28;20376;-67
2022/01/30 02:48:58;;;;;;;28.27;5.75;;;;;;;3.17;97.57;102602.88;5243764;28;20140;-67
2022/01/30 02:51:34;;;;;;;25.65;4.70;;;;;;;3.15;98.42;102600.25;5235857;28;20036;-67
2022/01/30 02:54:07;;;;;;;27.38;4.60;;;;;;;3.08;97.97;102601.25;5247553;28;20574;-67
2022/01/30 02:56:40;;;;;;;31.08;5.28;;;;;;;3.02;98.19;102601.34;5249712;28;20063;-67
2022/01/30 02:59:11;;;;;;;28.75;4.47;;;;;;;2.99;98.39;102607.53;5247784;28;20021;-67
2022/01/30 03:01:43;;;;;;;26.02;4.45;;;;;;;2.99;99.00;102614.56;5250716;28;20036;-67
2022/01/30 03:04:15;;;;;;;22.27;4.55;;;;;;;2.92;98.69;102611.19;5249693;28;20045;-67
2022/01/30 03:06:46;;;;;;;28.08;4.07;;;;;;;2.90;98.88;102619.09;5251365;28;20489;-67
2022/01/30 03:09:18;;;;;;;27.30;5.43;;;;;;;2.86;98.77;102632.38;5239937;28;20033;-67
2022/01/30 03:11:49;;;;;;;24.48;5.05;;;;;;;2.79;99.35;102631.59;5244630;28;20056;-67
2022/01/30 03:14:20;;;;;;;24.23;4.22;;;;;;;2.77;99.43;102635.16;5236492;28;20057;-68
2022/01/30 03:16:51;;;;;;;26.40;4.88;;;;;;;2.82;99.54;102636.81;5249421;28;20547;-67
2022/01/30 03:19:23;;;;;;;27.63;4.57;;;;;;;2.77;99.87;102637.78;5236759;28;20032;-67
2022/01/30 03:21:54;;;;;;;20.75;4.47;;;;;;;2.79;99.92;102644.75;5245333;28;20024;-67
2022/01/30 03:24:25;;;;;;;36.80;4.78;;;;;;;2.87;100.00;102642.88;5250533;28;20060;-67
2022/01/30 03:26:56;;;;;;;26.75;5.63;;;;;;;2.93;100.00;102647.19;5245510;28;20364;-67
2022/01/30 03:29:28;;;;;;;24.92;3.90;;;;;;;3.04;100.00;102650.53;5250215;28;20029;-67
2022/01/30 03:31:59;;;;;;;24.95;4.32;;;;;;;3.14;100.00;102648.59;5243264;28;20043;-67
2022/01/30 03:34:30;;;;;;;26.83;4.28;;;;;;;3.24;100.00;102657.22;5247619;28;20040;-67
2022/01/30 03:37:02;;;;;;;25.27;4.38;;;;;;;3.29;100.00;102650.97;5239691;28;20039;-67
2022/01/30 03:39:33;;;;;;;28.20;4.40;;;;;;;3.32;100.00;102666.78;5241782;28;20463;-67
2022/01/30 03:42:05;;;;;;;30.42;5.40;;;;;;;3.44;100.00;102667.47;5249446;28;20033;-67
2022/01/30 03:44:36;;;;;;;31.42;5.03;;;;;;;3.45;99.99;102679.75;5252599;28;20037;-67
2022/01/30 03:47:08;;;;;;;29.52;4.72;;;;;;;3.48;99.76;102679.69;5246418;28;20044;-67
2022/01/30 03:49:39;;;;;;;31.08;5.00;;;;;;;3.53;99.52;102691.06;5241096;28;20166;-67
2022/01/30 03:52:11;;;;;;;28.55;5.50;;;;;;;3.54;99.77;102693.66;5235670;28;20511;-67
2022/01/30 03:54:42;;;;;;;23.60;4.70;;;;;;;3.56;99.71;102698.91;5240869;28;20024;-67
2022/01/30 03:57:13;;;;;;;22.55;4.05;;;;;;;3.59;99.06;102690.09;5243981;28;20022;-67
2022/01/30 03:59:45;;;;;;;25.33;4.90;;;;;;;3.58;99.21;102685.69;5252942;28;20025;-67
2022/01/30 04:02:16;;;;;;;24.27;4.97;;;;;;;3.59;99.44;102688.31;5239723;28;20116;-67
2022/01/30 04:04:48;;;;;;;25.90;4.53;;;;;;;3.56;98.71;102690.13;5244800;28;20080;-67
2022/01/30 04:07:19;;;;;;;29.08;5.22;;;;;;;3.55;99.52;102697.19;5252924;28;20111;-67
2022/01/30 04:09:51;;;;;;;32.28;5.35;;;;;;;3.57;99.29;102698.03;5248199;28;20505;-67
2022/01/30 04:12:23;;;;;;;27.13;4.53;;;;;;;3.64;99.61;102699.63;5250054;28;20491;-67
2022/01/30 04:14:54;;;;;;;24.42;4.28;;;;;;;3.66;99.64;102703.16;5250210;28;20094;-67
2022/01/30 04:17:25;;;;;;;28.38;4.85;;;;;;;3.70;99.02;102703.94;5250932;28;20037;-67
2022/01/30 04:19:57;;;;;;;26.27;4.75;;;;;;;3.72;99.24;102708.31;5240407;28;20037;-67
2022/01/30 04:22:28;;;;;;;24.75;4.45;;;;;;;3.75;99.14;102710.00;5241037;28;20242;-67
2022/01/30 04:25:00;;;;;;;29.45;4.30;;;;;;;3.81;99.08;102706.41;5246294;28;20048;-67
2022/01/30 04:27:32;;;;;;;27.10;4.75;;;;;;;3.86;98.46;102709.84;5248082;28;20116;-67
2022/01/30 04:30:05;;;;;;;27.48;4.43;;;;;;;3.89;97.74;102707.13;5249794;28;20043;-67
2022/01/30 04:32:41;;;;;;;28.42;5.18;;;;;;;3.88;97.82;102723.88;5251150;28;20069;-67
2022/01/30 04:35:24;;;;;;;23.33;4.22;;;;;;;3.88;98.08;102713.31;5246949;28;20044;-68
2022/01/30 04:38:13;;;;;;;20.77;4.55;;;;;;;3.91;97.31;102715.88;5254497;28;20033;-67
2022/01/30 05:00:31;;;;;;;22.70;4.18;;;;;;;4.04;95.21;102733.25;5239982;28;20033;-67
2022/01/30 05:03:23;;;;;;;27.88;4.97;;;;;;;3.93;95.62;102732.56;5239286;28;20083;-67
2022/01/30 05:06:07;;;;;;;28.10;4.38;;;;;;;3.88;95.35;102737.09;5237285;28;20118;-67
2022/01/30 05:08:39;;;;;;;24.50;4.45;;;;;;;3.79;95.30;102747.81;5239110;28;20030;-67
2022/01/30 05:11:10;;;;;;;29.00;4.07;;;;;;;3.71;95.53;102747.94;5244863;28;20457;-67
2022/01/30 05:13:46;;;;;;;26.63;4.63;;;;;;;3.63;95.49;102750.69;5237327;28;20029;-67
2022/01/30 05:16:20;;;;;;;23.13;4.50;;;;;;;3.59;95.84;102759.56;5233101;28;20110;-67
2022/01/30 05:18:51;;;;;;;24.27;3.90;;;;;;;3.49;95.94;102763.22;5244919;28;20102;-67
2022/01/30 05:21:23;;;;;;;25.17;4.50;;;;;;;3.44;96.56;102765.09;5236260;28;20555;-67
2022/01/30 05:23:54;;;;;;;25.35;3.75;;;;;;;3.45;97.14;102764.19;5235185;28;20096;-67
2022/01/30 05:26:28;;;;;;;21.83;3.65;;;;;;;3.33;96.84;102757.34;5242984;28;20030;-67
2022/01/30 05:28:59;;;;;;;27.10;4.95;;;;;;;3.26;97.26;102753.94;5235299;28;20049;-67
2022/01/30 05:31:31;;;;;;;23.60;3.92;;;;;;;3.22;97.02;102752.25;5239350;28;20423;-67
2022/01/30 05:34:02;;;;;;;26.42;4.70;;;;;;;3.19;97.30;102759.31;5233236;28;20028;-67
2022/01/30 05:36:39;;;;;;;21.77;4.00;;;;;;;3.11;97.21;102751.53;5235705;28;20497;-67
2022/01/30 05:39:11;;;;;;;18.80;3.42;;;;;;;3.11;97.57;102754.16;5242775;28;20441;-67
2022/01/30 05:41:42;;;;;;;20.27;4.20;;;;;;;3.07;98.24;102755.09;5231574;28;20105;-67
2022/01/30 05:44:18;;;;;;;22.48;4.10;;;;;;;3.04;98.53;102763.91;5245157;28;20123;-67
2022/01/30 05:46:54;;;;;;;27.60;4.00;;;;;;;3.04;97.87;102763.91;5246983;28;20458;-67
2022/01/30 05:49:27;;;;;;;20.05;3.65;;;;;;;3.00;97.83;102770.13;5243960;28;20072;-67
2022/01/30 05:51:58;;;;;;;20.58;3.60;;;;;;;2.98;97.55;102773.69;5227812;28;20060;-67
2022/01/30 05:54:29;;;;;;;24.75;4.00;;;;;;;2.96;97.41;102778.13;5242820;28;20043;-67
2022/01/30 05:57:01;;;;;;;20.35;3.95;;;;;;;2.92;98.01;102777.28;5234401;28;20067;-67
2022/01/30 05:59:32;;;;;;;20.88;3.55;;;;;;;2.89;97.50;102774.66;5231782;28;20025;-67
2022/01/30 06:02:03;;;;;;;21.05;3.88;;;;;;;2.87;97.44;102774.69;5244284;28;20546;-67
2022/01/30 06:04:35;;;;;;;23.10;3.30;;;;;;;2.84;97.61;102780.00;5240114;28;20031;-67
2022/01/30 06:07:08;;;;;;;17.80;3.50;;;;;;;2.79;97.28;102780.97;5237581;28;20387;-67
2022/01/30 06:09:39;;;;;;;18.53;3.90;;;;;;;2.82;96.94;102787.06;5227860;28;20059;-67
2022/01/30 06:12:11;;;;;;;24.13;3.30;;;;;;;2.77;97.31;102788.03;5243245;28;20036;-67
2022/01/30 06:14:45;;;;;;;21.45;3.20;;;;;;;2.74;97.31;102791.53;5238746;28;20064;-67
2022/01/30 06:17:16;;;;;;;23.63;4.10;;;;;;;2.71;97.24;102786.34;5237014;28;20031;-67
2022/01/30 06:19:48;;;;;;;20.98;3.22;;;;;;;2.71;98.19;102786.34;5237173;28;20024;-67
2022/01/30 06:22:19;;;;;;;19.90;2.95;;;;;;;2.70;98.42;102792.47;5269849;28;20040;-67
2022/01/30 06:24:50;;;;;;;23.92;3.72;;;;;;;2.71;98.66;102786.34;5238171;28;20078;-67
2022/01/30 06:27:21;;;;;;;19.92;3.67;;;;;;;2.81;98.40;102785.31;5240620;28;20043;-67
2022/01/30 06:29:53;;;;;;;19.98;3.45;;;;;;;2.88;98.28;102783.50;5239184;28;20029;-67
2022/01/30 06:32:24;;;;;;;23.60;3.55;;;;;;;3.00;97.41;102779.81;5239076;28;20058;-67
2022/01/30 06:34:56;;;;;;;21.42;3.10;;;;;;;3.11;96.86;102781.41;5238294;28;20099;-67
2022/01/30 06:37:27;;;;;;;14.80;3.30;;;;;;;3.18;96.10;102782.16;5238966;28;20068;-67
2022/01/30 06:39:58;;;;;;;16.13;2.60;;;;;;;3.24;96.43;102783.84;5241221;28;20470;-67
2022/01/30 06:42:30;;;;;;;21.92;3.53;;;;;;;3.33;95.42;102791.63;5244372;28;20025;-67
2022/01/30 06:45:01;;;;;;;17.20;3.58;;;;;;;3.41;93.97;102787.09;5243762;28;20448;-67
2022/01/30 06:47:40;;;;;;;23.20;3.10;;;;;;;3.50;93.80;102791.38;5242644;28;20375;-67
2022/01/30 06:50:12;;;;;;;20.55;3.88;;;;;;;3.48;94.70;102794.03;5244516;28;20055;-67
2022/01/30 06:52:44;;;;;;;20.02;3.42;;;;;;;3.52;94.49;102800.16;5240757;28;20028;-67
2022/01/30 06:55:15;;;;;;;17.58;3.17;;;;;;;3.53;93.73;102807.19;5245334;28;20130;-67
2022/01/30 06:57:46;;;;;;;17.55;3.40;;;;;;;3.45;94.07;102806.41;5247367;28;20209;-67
2022/01/30 07:00:18;;;;;;;18.38;2.92;;;;;;;3.38;94.74;102803.00;5243042;28;20311;-67
2022/01/30 07:02:49;;;;;;;23.73;3.70;;;;;;;3.34;94.96;102814.50;5242941;28;20095;-67
2022/01/30 07:05:20;;;;;;;18.45;4.15;;;;;;;3.26;94.81;102819.88;5244382;28;20029;-67
2022/01/30 07:07:52;;;;;;;15.50;2.75;;;;;;;3.14;95.62;102814.75;5244660;28;20033;-67
2022/01/30 07:10:24;;;;;;;17.10;3.13;;;;;;;3.08;95.68;102822.75;5242413;28;20553;-67
2022/01/30 07:12:55;;;;;;;18.25;3.60;;;;;;;3.03;96.03;102821.94;5246880;28;20036;-67
2022/01/30 07:15:26;;;;;;;20.40;3.15;;;;;;;3.03;96.22;102827.22;5246270;28;20041;-67
2022/01/30 07:17:58;;;;;;;25.63;3.83;;;;;;;3.02;96.14;102830.75;5245652;28;20029;-67
2022/01/30 07:20:29;;;;;;;24.15;4.25;;;;;;;3.02;96.46;102830.75;5242953;28;20021;-67
2022/01/30 07:23:00;;;;;;;17.08;3.13;;;;;;;2.97;96.58;102829.94;5245345;28;20029;-67
2022/01/30 07:25:33;;;;;;;19.10;4.07;;;;;;;2.91;96.83;102831.75;5245501;28;20053;-67
2022/01/30 07:28:04;;;;;;;18.75;4.55;;;;;;;2.89;97.48;102838.81;5244426;28;20067;-67
2022/01/30 07:30:36;;;;;;;23.75;3.88;;;;;;;2.90;96.20;102840.56;5243444;28;20029;-67
2022/01/30 07:33:07;;;;;;;21.83;3.78;;;;;;;2.91;95.83;102833.53;5245155;28;20127;-67
2022/01/30 07:35:41;;;;;;;22.95;3.70;;;;;;;2.87;96.58;102852.91;5246022;28;20484;-67
2022/01/30 07:38:13;;;;;;;21.05;4.03;;;;;;;2.91;95.40;102850.19;5247769;28;21621;-67
2022/01/30 07:40:44;;;;;;;24.25;3.60;;;;;;;2.88;95.71;102854.66;5249338;28;20029;-67
2022/01/30 07:43:16;;;;;;;29.00;3.58;;;;;;;2.81;95.93;102864.41;5249513;28;20528;-67
2022/01/30 07:45:47;;;;;;;20.55;3.28;;;;;;;2.80;96.17;102867.94;5246708;28;20471;-67
2022/01/30 07:48:18;;;;;;;21.95;3.47;;;;;;;2.81;96.26;102877.56;5243346;28;20506;-67
2022/01/30 07:50:49;;;;;;;25.05;3.75;;;;;;;2.68;96.83;102873.34;5243242;28;20029;-67
2022/01/30 07:53:21;;;;;;;24.75;4.15;;;;;;;2.63;97.25;102870.75;5246789;28;20115;-67
2022/01/30 07:55:54;;;;;;;17.73;3.20;;;;;;;2.65;96.89;102868.09;5242958;28;20028;-67
2022/01/30 07:58:25;;;;;;;27.80;3.40;;;;;;;2.66;96.74;102868.06;5244982;28;20099;-67
2022/01/30 08:00:56;;;;;;;22.77;3.72;;;;;;;2.63;96.76;102859.34;5241456;28;20467;-67
2022/01/30 08:03:27;;;;;;;20.60;3.45;;;;;;;2.63;97.39;102867.25;5248104;28;20798;-67
2022/01/30 08:05:59;;;;;;;20.13;3.80;;;;;;;2.59;97.60;102868.16;5252003;28;20025;-67
2022/01/30 08:08:30;;;;;;;20.20;3.65;;;;;;;2.53;97.55;102872.63;5240674;28;20088;-67
2022/01/30 08:11:01;;;;;;;20.70;3.55;;;;;;;2.54;98.02;102878.75;5235189;28;20152;-67
2022/01/30 08:13:32;;;;;;;16.77;3.17;;;;;;;2.51;98.13;102871.75;5229374;28;20052;-67
2022/01/30 08:16:04;;;;;;;19.13;3.78;;;;;;;2.51;97.74;102877.03;5231210;28;20091;-67
2022/01/30 08:18:37;;;;;;;25.45;3.53;;;;;;;2.52;97.75;102873.50;5241209;28;20036;-67
2022/01/30 08:21:08;;;;;;;18.50;3.20;;;;;;;2.53;97.34;102882.25;5245912;28;20542;-67
2022/01/30 08:23:39;;;;;;;23.02;4.50;;;;;;;2.57;98.17;102883.09;5245736;28;20037;-67
2022/01/30 08:26:11;;;;;;;20.70;3.60;;;;;;;2.56;97.79;102890.16;5245836;28;20037;-67
2022/01/30 08:28:42;;;;;;;18.65;3.38;;;;;;;2.57;97.66;102888.38;5251701;28;20055;-67
2022/01/30 08:31:13;;;;;;;16.95;3.08;;;;;;;2.57;98.52;102894.53;5253429;28;20082;-67
2022/01/30 08:33:44;;;;;;;21.73;3.47;;;;;;;2.57;99.00;102893.66;5249241;28;20103;-67
2022/01/30 08:36:16;;;;;;;21.05;3.85;;;;;;;2.56;98.43;102898.06;5251323;28;20037;-67
2022/01/30 08:38:47;;;;;;;27.17;3.30;;;;;;;2.65;97.88;102897.09;5249909;28;20321;-67
2022/01/30 08:41:18;;;;;;;20.35;3.50;;;;;;;2.79;98.37;102896.94;5254827;28;20189;-67
2022/01/30 08:43:49;;;;;;;25.27;3.83;;;;;;;2.93;97.77;102888.00;5251639;28;20386;-67
2022/01/30 08:46:21;;;;;;;26.95;4.47;;;;;;;2.99;97.04;102889.66;5248818;28;20037;-67
2022/01/30 08:48:52;;;;;;;24.90;3.65;;;;;;;3.07;96.45;102887.84;5251607;28;20033;-67
2022/01/30 08:51:23;;;;;;;18.77;3.50;;;;;;;3.08;96.13;102892.19;5253734;28;20155;-67
2022/01/30 08:53:54;;;;;;;20.40;3.30;;;;;;;3.14;96.63;102893.88;5241402;28;20025;-67
2022/01/30 08:56:26;;;;;;;21.52;3.47;;;;;;;3.25;95.66;102892.00;5245161;28;20036;-67
2022/01/30 08:58:58;;;;;;;24.02;3.83;;;;;;;3.27;96.14;102892.84;5244884;28;20029;-67
2022/01/30 09:01:32;;;;;;;16.58;3.53;;;;;;;3.38;94.99;102891.84;5248509;28;20029;-67
2022/01/30 09:04:04;;;;;;;19.15;3.60;;;;;;;3.46;93.64;102889.97;5247329;28;20099;-67
2022/01/30 09:06:38;;;;;;;17.42;4.00;;;;;;;3.55;92.71;102892.50;5245258;28;20152;-67
2022/01/30 09:09:09;;;;;;;21.63;3.72;;;;;;;3.67;91.79;102897.56;5246859;28;20041;-67
2022/01/30 09:11:40;;;;;;;18.13;3.15;;;;;;;3.69;91.63;102900.19;5243221;28;20130;-67
2022/01/30 09:14:12;;;;;;;21.25;3.88;;;;;;;3.71;91.43;102903.69;5244624;28;20506;-67
2022/01/30 09:16:46;;;;;;;18.30;3.45;;;;;;;3.70;92.50;102910.75;5242906;28;20029;-67
2022/01/30 09:19:17;;;;;;;26.98;3.40;;;;;;;3.73;92.43;102918.59;5242812;28;20056;-67
2022/01/30 09:21:51;;;;;;;19.48;3.35;;;;;;;3.69;93.10;102930.09;5236798;28;20028;-67
2022/01/30 09:24:22;;;;;;;25.67;4.47;;;;;;;3.80;92.05;102939.66;5250423;28;20843;-67
2022/01/30 09:26:53;;;;;;;20.77;4.07;;;;;;;3.92;92.23;102929.78;5250859;28;20033;-67
2022/01/30 09:29:25;;;;;;;25.25;4.25;;;;;;;4.13;89.98;102925.06;5245632;28;20043;-67
2022/01/30 09:31:57;;;;;;;20.23;4.25;;;;;;;4.30;88.39;102919.50;5245248;28;20063;-67
2022/01/30 09:34:29;;;;;;;18.92;4.10;;;;;;;4.48;86.43;102932.38;5247241;28;20032;-67
2022/01/30 09:37:00;;;;;;;17.88;3.42;;;;;;;4.61;85.55;102926.91;5247683;28;20585;-67
2022/01/30 09:39:32;;;;;;;29.17;4.15;;;;;;;4.74;84.38;102931.06;5245171;28;20079;-67
2022/01/30 09:42:04;;;;;;;23.90;3.80;;;;;;;4.77;84.18;102946.00;5247410;28;20040;-67
2022/01/30 09:44:41;;;;;;;22.73;4.13;;;;;;;4.85;81.31;102944.06;5249005;28;20037;-67
2022/01/30 09:47:17;;;;;;;20.63;3.60;;;;;;;4.86;82.96;102946.69;5241899;28;20052;-67
2022/01/30 09:49:52;;;;;;;19.17;3.58;;;;;;;4.95;82.62;102948.31;5254003;28;20033;-67
2022/01/30 09:52:24;;;;;;;23.02;3.63;;;;;;;5.04;81.21;102934.91;5252632;28;20025;-67
2022/01/30 09:54:55;;;;;;;23.42;3.88;;;;;;;5.08;80.33;102947.16;5246175;28;20465;-67
2022/01/30 09:57:26;;;;;;;19.85;4.38;;;;;;;5.14;81.30;102948.81;5236148;28;20423;-67
2022/01/30 09:59:58;;;;;;;23.70;3.78;;;;;;;5.19;80.26;102952.22;5245754;28;20043;-67
2022/01/30 10:02:29;;;;;;;27.15;5.10;;;;;;;5.20;79.61;102948.69;5249633;28;20118;-67
2022/01/30 10:05:00;;;;;;;23.45;3.88;;;;;;;5.10;81.70;102950.66;5245333;28;20024;-67
2022/01/30 10:07:49;;;;;;;20.25;3.80;;;;;;;5.08;81.64;102962.16;5255650;28;20048;-67
2022/01/30 10:10:24;;;;;;;25.02;4.10;;;;;;;5.10;81.87;102965.63;5248427;28;20446;-67
2022/01/30 10:13:11;;;;;;;19.35;3.53;;;;;;;5.25;79.60;102975.94;5252593;28;20036;-67
2022/01/30 10:15:50;;;;;;;21.27;4.63;;;;;;;5.35;79.60;102981.03;5244953;28;20060;-67
2022/01/30 10:18:22;;;;;;;19.13;4.20;;;;;;;5.42;80.30;102977.38;5247515;28;20382;-67
2022/01/30 10:20:54;;;;;;;17.55;3.63;;;;;;;5.57;78.63;102982.34;5255870;28;20036;-67
2022/01/30 10:23:33;;;;;;;21.08;3.92;;;;;;;5.61;79.02;102975.22;5249495;28;20823;-68
2022/01/30 10:26:08;;;;;;;27.42;4.60;;;;;;;5.56;79.07;102974.44;5255379;28;20041;-68
2022/01/30 10:28:41;;;;;;;22.55;4.10;;;;;;;5.50;80.31;102968.38;5251806;28;20022;-67
2022/01/30 10:31:12;;;;;;;35.58;5.88;;;;;;;5.54;78.03;102979.75;5252616;28;20047;-67
2022/01/30 10:33:46;;;;;;;29.20;4.20;;;;;;;5.47;80.10;102983.44;5254404;28;20036;-67
2022/01/30 10:36:23;;;;;;;25.00;4.50;;;;;;;5.54;80.52;102979.75;5260885;28;20049;-67
2022/01/30 10:39:13;;;;;;;22.33;4.57;;;;;;;5.58;81.30;102984.09;5248702;28;20025;-67
2022/01/30 10:41:53;;;;;;;28.17;4.85;;;;;;;5.74;79.88;102975.84;5264776;28;20040;-67
2022/01/30 10:44:25;;;;;;;25.92;4.30;;;;;;;5.83;77.87;102976.50;5255771;28;20082;-67
2022/01/30 10:46:56;;;;;;;23.08;3.97;;;;;;;5.97;77.26;102981.50;5258304;28;20033;-67
2022/01/30 10:49:27;;;;;;;27.48;4.22;;;;;;;6.17;78.37;102981.03;5265776;28;20119;-67
2022/01/30 10:52:01;;;;;;;27.65;4.25;;;;;;;6.22;79.11;102976.50;5251695;28;20043;-67
2022/01/30 10:54:34;;;;;;;26.23;4.57;;;;;;;6.23;76.08;102978.25;5251974;28;20037;-67
2022/01/30 10:57:08;;;;;;;20.60;4.32;;;;;;;6.23;75.93;102972.06;5242216;28;20103;-67
2022/01/30 10:59:45;;;;;;;24.80;4.07;;;;;;;6.20;75.79;102972.16;5242996;28;20116;-67
2022/01/30 11:02:22;;;;;;;21.13;4.50;;;;;;;6.19;74.01;102984.50;5251308;28;20028;-67
2022/01/30 11:05:07;;;;;;;25.02;5.00;;;;;;;6.18;73.99;102968.69;5254139;28;20043;-67
2022/01/30 11:07:39;;;;;;;27.30;4.45;;;;;;;6.16;74.38;102971.34;5255306;28;20107;-67
2022/01/30 11:10:23;;;;;;;26.38;4.28;;;;;;;6.15;73.30;102960.78;5255170;28;20363;-67
2022/01/30 11:13:08;;;;;;;25.88;4.82;;;;;;;6.06;73.67;102954.81;5253706;28;20046;-67
2022/01/30 11:15:43;;;;;;;21.70;4.13;;;;;;;5.97;75.34;102952.38;5256278;28;20597;-67
2022/01/30 11:18:14;;;;;;;20.73;5.05;;;;;;;5.92;73.83;102948.91;5251514;28;20037;-67
2022/01/30 11:20:46;;;;;;;26.42;4.72;;;;;;;5.84;75.07;102941.13;5255943;28;20025;-67
2022/01/30 11:23:18;;;;;;;23.92;4.53;;;;;;;5.89;73.42;102943.69;5250631;28;21723;-67
2022/01/30 11:25:50;;;;;;;30.85;4.95;;;;;;;5.89;72.56;102943.69;5255753;28;20116;-67
2022/01/30 11:28:22;;;;;;;28.02;4.30;;;;;;;5.89;71.83;102952.50;5256134;28;20020;-68
2022/01/30 11:30:53;;;;;;;26.63;4.53;;;;;;;5.87;72.86;102946.38;5258770;28;20390;-68
2022/01/30 11:33:24;;;;;;;23.40;4.28;;;;;;;5.84;73.97;102937.63;5290932;28;20025;-68
2022/01/30 11:35:56;;;;;;;23.50;3.95;;;;;;;5.85;71.63;102942.03;5260070;28;20505;-67
2022/01/30 11:38:27;;;;;;;21.40;4.40;;;;;;;5.91;71.25;102947.19;5258333;28;20020;-67
2022/01/30 11:41:16;;;;;;;26.45;4.90;;;;;;;5.92;72.02;102945.41;5257071;28;20501;-68
2022/01/30 11:44:19;;;;;;;20.40;4.32;;;;;;;5.95;71.09;102943.56;5258216;28;20072;-68
2022/01/30 11:46:56;;;;;;;27.63;4.22;;;;;;;5.94;69.25;102933.84;5251182;28;20029;-68
2022/01/30 11:49:49;;;;;;;21.63;4.07;;;;;;;5.97;69.87;102936.47;5256449;28;20120;-68
2022/01/30 11:52:51;;;;;;;20.83;3.65;;;;;;;6.09;71.49;102933.50;5257014;28;20475;-68
2022/01/30 11:55:41;;;;;;;25.73;4.00;;;;;;;6.30;71.09;102923.28;5258265;28;20067;-68
2022/01/30 11:58:31;;;;;;;20.80;4.35;;;;;;;6.46;69.48;102923.78;5256482;28;20044;-68
2022/01/30 12:01:12;;;;;;;23.65;4.28;;;;;;;6.60;71.22;102929.59;5252117;28;20120;-68
2022/01/30 12:03:59;;;;;;;26.35;3.90;;;;;;;6.71;69.33;102913.38;5247811;28;20082;-68
2022/01/30 12:06:33;;;;;;;26.67;4.15;;;;;;;6.81;70.22;102925.50;5259542;28;20029;-68
2022/01/30 12:09:17;;;;;;;25.10;4.55;;;;;;;6.76;68.76;102927.41;5251286;28;20037;-68
2022/01/30 12:11:48;;;;;;;23.93;4.20;;;;;;;6.83;69.26;102933.44;5257818;28;20048;-68
2022/01/30 12:14:19;;;;;;;26.58;4.22;;;;;;;6.82;66.20;102918.41;5253446;28;20669;-68
2022/01/30 12:17:00;;;;;;;23.23;4.60;;;;;;;6.76;66.58;102910.63;5257188;28;20040;-68
2022/01/30 12:19:31;;;;;;;18.60;3.70;;;;;;;6.62;66.89;102921.63;5250470;28;20037;-68
2022/01/30 12:22:18;;;;;;;19.00;3.95;;;;;;;6.52;66.87;102920.09;5257195;28;20035;-68
2022/01/30 12:24:52;;;;;;;20.58;3.92;;;;;;;6.41;66.65;102920.38;5254095;28;20040;-68
2022/01/30 12:27:46;;;;;;;26.52;5.00;;;;;;;6.36;68.11;102915.19;5255472;28;20049;-67
2022/01/30 12:30:44;;;;;;;19.90;4.38;;;;;;;6.37;67.93;102916.94;5252400;28;20064;-67
2022/01/30 12:33:37;;;;;;;21.35;4.40;;;;;;;6.56;68.64;102901.44;5263481;28;20025;-67
2022/01/30 12:36:14;;;;;;;22.00;3.88;;;;;;;6.79;67.53;102897.28;5255977;28;20041;-68
2022/01/30 12:38:51;;;;;;;17.83;4.10;;;;;;;6.90;65.45;102889.00;5254020;28;20111;-68